createdAt,value
2018-05-06T00:01:15.946Z,13.77
2018-05-06T00:06:11.828Z,13.71
2018-05-06T00:11:11.991Z,13.71
2018-05-06T00:16:07.907Z,13.67
2018-05-06T00:21:03.659Z,13.68
2018-05-06T00:25:59.404Z,13.54
2018-05-06T00:30:56.094Z,13.41
2018-05-06T00:35:56.502Z,13.35
2018-05-06T00:40:51.221Z,13.38
2018-05-06T00:45:47.017Z,13.28
2018-05-06T00:50:47.664Z,13.28
2018-05-06T00:55:46.287Z,13.27
2018-05-06T01:00:41.430Z,13.09
2018-05-06T01:05:37.093Z,13.01
2018-05-06T01:10:32.932Z,13.01
2018-05-06T01:15:32.699Z,12.87
2018-05-06T01:20:27.585Z,12.82
2018-05-06T01:25:23.465Z,12.83
2018-05-06T01:30:19.353Z,12.75
2018-05-06T01:35:16.085Z,12.73
2018-05-06T01:40:11.556Z,12.47
2018-05-06T01:45:07.310Z,12.45
2018-05-06T01:50:08.406Z,12.40
2018-05-06T01:55:03.168Z,12.40
2018-05-06T01:59:59.815Z,12.37
2018-05-06T02:04:56.574Z,12.45
2018-05-06T02:09:51.928Z,12.57
2018-05-06T02:14:48.675Z,12.50
2018-05-06T02:19:45.083Z,12.43
2018-05-06T02:24:40.311Z,12.37
2018-05-06T02:29:39.700Z,12.35
2018-05-06T02:34:34.489Z,12.13
2018-05-06T02:39:31.147Z,12.21
2018-05-06T02:44:27.558Z,12.06
2018-05-06T02:49:23.199Z,12.00
2018-05-06T02:54:22.825Z,11.84
2018-05-06T02:59:17.557Z,11.70
2018-05-06T03:04:13.252Z,11.77
2018-05-06T03:09:09.064Z,11.62
2018-05-06T03:14:05.837Z,11.57
2018-05-06T03:19:01.339Z,11.60
2018-05-06T03:24:00.963Z,11.54
2018-05-06T03:28:55.723Z,11.55
2018-05-06T03:33:51.379Z,11.50
2018-05-06T03:38:47.045Z,11.51
2018-05-06T03:43:47.725Z,11.50
2018-05-06T03:48:46.237Z,11.52
2018-05-06T03:53:42.634Z,11.52
2018-05-06T03:58:38.371Z,11.50
2018-05-06T04:03:38.042Z,11.55
2018-05-06T04:08:33.044Z,11.62
2018-05-06T04:13:29.050Z,11.70
2018-05-06T04:18:28.562Z,11.66
2018-05-06T04:23:23.462Z,11.72
2018-05-06T04:28:19.965Z,11.81
2018-05-06T04:33:15.522Z,12.06
2018-05-06T04:38:11.942Z,12.53
2018-05-06T04:43:09.088Z,12.76
2018-05-06T04:48:04.923Z,13.01
2018-05-06T04:53:04.655Z,13.20
2018-05-06T04:57:59.716Z,13.30
2018-05-06T05:02:55.847Z,13.19
2018-05-06T05:07:56.596Z,13.16
2018-05-06T05:12:55.310Z,13.18
2018-05-06T05:17:55.263Z,13.28
2018-05-06T05:22:53.901Z,13.31
2018-05-06T05:27:48.884Z,13.37
2018-05-06T05:32:44.643Z,13.47
2018-05-06T05:37:40.379Z,13.59
2018-05-06T05:42:36.807Z,13.79
2018-05-06T05:47:33.712Z,13.79
2018-05-06T05:52:32.976Z,13.96
2018-05-06T05:57:32.342Z,14.04
2018-05-06T06:02:31.203Z,14.17
2018-05-06T06:07:30.178Z,14.26
2018-05-06T06:12:26.024Z,14.50
2018-05-06T06:17:26.133Z,14.47
2018-05-06T06:22:21.103Z,14.55
2018-05-06T06:27:21.607Z,14.82
2018-05-06T06:32:16.802Z,14.81
2018-05-06T06:37:13.568Z,14.97
2018-05-06T06:42:14.395Z,15.11
2018-05-06T06:47:09.588Z,15.22
2018-05-06T06:52:05.275Z,15.31
2018-05-06T06:57:04.818Z,15.37
2018-05-06T07:01:59.673Z,15.57
2018-05-06T07:06:56.098Z,15.58
2018-05-06T07:11:56.390Z,15.76
2018-05-06T07:16:52.568Z,15.80
2018-05-06T07:21:48.816Z,15.97
2018-05-06T07:26:48.610Z,16.29
2018-05-06T07:31:47.687Z,16.41
2018-05-06T07:36:42.757Z,16.65
2018-05-06T07:41:39.630Z,17.16
2018-05-06T07:46:41.743Z,17.79
2018-05-06T07:51:40.135Z,19.12
2018-05-06T07:56:38.294Z,20.95
2018-05-06T08:01:37.124Z,22.08
2018-05-06T08:06:34.514Z,23.05
2018-05-06T08:11:31.664Z,22.47
2018-05-06T08:16:28.595Z,21.66
2018-05-06T08:21:24.541Z,22.73
2018-05-06T08:26:24.996Z,21.33
2018-05-06T08:31:20.158Z,23.23
2018-05-06T08:36:21.014Z,24.91
2018-05-06T08:41:18.323Z,25.07
2018-05-06T08:46:12.638Z,23.76
2018-05-06T08:51:11.096Z,23.56
2018-05-06T08:56:05.867Z,23.15
2018-05-06T09:01:01.068Z,22.55
2018-05-06T09:06:00.770Z,21.92
2018-05-06T09:10:58.498Z,21.93
2018-05-06T09:15:53.883Z,23.05
2018-05-06T09:20:52.203Z,24.36
2018-05-06T09:25:50.669Z,25.41
2018-05-06T09:30:47.996Z,25.96
2018-05-06T09:35:49.244Z,25.60
2018-05-06T09:40:45.157Z,25.01
2018-05-06T09:45:41.490Z,26.10
2018-05-06T09:50:38.029Z,26.62
2018-05-06T09:55:38.306Z,26.58
2018-05-06T10:00:33.773Z,27.33
2018-05-06T10:05:30.280Z,25.96
2018-05-06T10:10:30.333Z,26.36
2018-05-06T10:15:29.855Z,26.53
2018-05-06T10:20:25.321Z,25.66
2018-05-06T10:25:21.368Z,26.31
2018-05-06T10:30:17.853Z,26.70
2018-05-06T10:35:14.244Z,27.52
2018-05-06T10:40:10.820Z,26.93
2018-05-06T10:45:11.421Z,26.03
2018-05-06T10:50:06.677Z,27.12
2018-05-06T10:55:03.583Z,27.77
2018-05-06T11:00:04.123Z,28.19
2018-05-06T11:05:00.066Z,27.95
2018-05-06T11:09:56.480Z,27.36
2018-05-06T11:14:52.753Z,28.12
2018-05-06T11:19:49.276Z,28.33
2018-05-06T11:24:45.850Z,27.07
2018-05-06T11:29:46.030Z,26.45
2018-05-06T11:34:41.376Z,26.63
2018-05-06T11:39:37.594Z,27.68
2018-05-06T11:44:35.288Z,28.98
2018-05-06T11:49:32.228Z,27.92
2018-05-06T11:54:31.655Z,26.65
2018-05-06T11:59:27.759Z,27.33
2018-05-06T12:04:23.237Z,27.89
2018-05-06T12:09:20.491Z,28.39
2018-05-06T12:14:16.437Z,29.31
2018-05-06T12:19:12.775Z,29.65
2018-05-06T12:24:09.740Z,28.47
2018-05-06T12:29:09.403Z,28.51
2018-05-06T12:34:04.174Z,28.44
2018-05-06T12:38:59.876Z,27.48
2018-05-06T12:43:52.642Z,26.55
2018-05-06T12:48:47.067Z,26.96
2018-05-06T12:53:42.513Z,27.75
2018-05-06T12:58:39.944Z,28.85
2018-05-06T13:03:42.168Z,28.79
2018-05-06T13:08:41.489Z,28.49
2018-05-06T13:13:40.850Z,29.38
2018-05-06T13:18:36.022Z,28.91
2018-05-06T13:23:32.041Z,29.49
2018-05-06T13:28:28.778Z,26.99
2018-05-06T13:33:24.795Z,27.12
2018-05-06T13:38:23.468Z,26.84
2018-05-06T13:43:17.299Z,26.44
2018-05-06T13:48:13.099Z,25.66
2018-05-06T13:53:07.495Z,25.43
2018-05-06T13:58:04.345Z,25.21
2018-05-06T14:03:03.426Z,25.11
2018-05-06T14:07:59.155Z,25.01
2018-05-06T14:12:54.580Z,25.01
2018-05-06T14:17:50.933Z,25.35
2018-05-06T14:22:47.090Z,25.90
2018-05-06T14:27:43.082Z,25.50
2018-05-06T14:32:38.896Z,25.04
2018-05-06T14:37:36.364Z,24.77
2018-05-06T14:42:32.080Z,24.77
2018-05-06T14:47:31.698Z,24.81
2018-05-06T14:52:27.915Z,24.77
2018-05-06T14:57:23.854Z,24.84
2018-05-06T15:02:19.643Z,24.77
2018-05-06T15:07:19.544Z,24.80
2018-05-06T15:12:14.488Z,24.66
2018-05-06T15:17:10.381Z,24.76
2018-05-06T15:22:06.489Z,24.54
2018-05-06T15:27:02.715Z,24.77
2018-05-06T15:31:59.869Z,24.81
2018-05-06T15:36:55.592Z,24.98
2018-05-06T15:41:52.144Z,24.80
2018-05-06T15:46:52.016Z,24.65
2018-05-06T15:51:51.961Z,24.74
2018-05-06T15:56:46.712Z,24.68
2018-05-06T16:01:42.493Z,24.58
2018-05-06T16:06:38.506Z,24.53
2018-05-06T16:11:34.470Z,24.68
2018-05-06T16:16:34.795Z,24.63
2018-05-06T16:21:30.072Z,24.50
2018-05-06T16:26:30.930Z,24.51
2018-05-06T16:31:25.665Z,24.50
2018-05-06T16:36:21.593Z,24.50
2018-05-06T16:41:17.447Z,24.32
2018-05-06T16:46:14.377Z,24.28
2018-05-06T16:51:10.047Z,24.23
2018-05-06T16:56:06.036Z,24.06
2018-05-06T17:01:02.928Z,24.06
2018-05-06T17:05:58.593Z,24.02
2018-05-06T17:10:54.600Z,23.95
2018-05-06T17:15:50.423Z,24.08
2018-05-06T17:20:47.242Z,23.95
2018-05-06T17:25:42.953Z,23.84
2018-05-06T17:30:38.954Z,23.74
2018-05-06T17:35:34.964Z,23.62
2018-05-06T17:40:30.968Z,23.55
2018-05-06T17:45:30.625Z,23.44
2018-05-06T17:50:26.617Z,23.34
2018-05-06T17:55:21.973Z,23.36
2018-05-06T18:00:19.099Z,23.13
2018-05-06T18:05:18.432Z,23.06
2018-05-06T18:10:14.301Z,22.96
2018-05-06T18:15:09.986Z,22.81
2018-05-06T18:20:07.097Z,22.78
2018-05-06T18:25:03.501Z,22.53
2018-05-06T18:30:02.955Z,22.36
2018-05-06T18:34:57.803Z,22.23
2018-05-06T18:39:53.494Z,21.98
2018-05-06T18:44:49.344Z,21.82
2018-05-06T18:49:45.145Z,21.72
2018-05-06T18:54:42.038Z,21.57
2018-05-06T18:59:41.380Z,21.48
2018-05-06T19:04:40.177Z,21.22
2018-05-06T19:09:34.879Z,21.15
2018-05-06T19:14:30.726Z,20.96
2018-05-06T19:19:26.567Z,20.80
2018-05-06T19:24:26.975Z,20.58
2018-05-06T19:29:26.544Z,20.52
2018-05-06T19:34:22.294Z,20.39
2018-05-06T19:39:17.690Z,20.19
2018-05-06T19:44:13.350Z,20.14
2018-05-06T19:49:09.665Z,20.09
2018-05-06T19:54:10.409Z,19.92
2018-05-06T19:59:09.190Z,19.84
2018-05-06T20:04:04.021Z,19.77
2018-05-06T20:09:03.554Z,19.64
2018-05-06T20:13:58.532Z,19.62
2018-05-06T20:18:58.557Z,19.56
2018-05-06T20:23:54.471Z,19.49
2018-05-06T20:28:50.585Z,19.48
2018-05-06T20:33:46.533Z,19.34
2018-05-06T20:38:42.180Z,19.29
2018-05-06T20:43:39.127Z,19.11
2018-05-06T20:48:34.498Z,19.12
2018-05-06T20:53:34.361Z,19.08
2018-05-06T20:58:29.051Z,19.00
2018-05-06T21:03:28.899Z,18.96
2018-05-06T21:08:23.933Z,18.75
2018-05-06T21:13:19.903Z,18.70
2018-05-06T21:18:16.226Z,18.56
2018-05-06T21:23:15.483Z,18.45
2018-05-06T21:28:14.302Z,18.35
2018-05-06T21:33:09.394Z,18.22
2018-05-06T21:38:06.267Z,18.16
2018-05-06T21:43:02.737Z,18.00
2018-05-06T21:47:59.303Z,18.00
2018-05-06T21:52:55.241Z,17.98
2018-05-06T21:57:55.935Z,17.86
2018-05-06T22:02:50.631Z,17.67
2018-05-06T22:07:46.479Z,17.63
2018-05-06T22:12:42.730Z,17.56
2018-05-06T22:17:38.394Z,17.46
2018-05-06T22:22:38.785Z,17.46
2018-05-06T22:27:34.431Z,17.45
2018-05-06T22:32:31.258Z,17.42
2018-05-06T22:37:30.739Z,17.31
2018-05-06T22:42:25.653Z,17.39
2018-05-06T22:47:25.341Z,17.30
2018-05-06T22:52:24.385Z,17.24
2018-05-06T22:57:23.262Z,17.27
2018-05-06T23:02:18.683Z,17.38
2018-05-06T23:07:14.569Z,17.36
2018-05-06T23:12:11.301Z,17.36
2018-05-06T23:17:10.837Z,17.24
2018-05-06T23:22:09.955Z,17.05
2018-05-06T23:27:04.759Z,16.96
2018-05-06T23:32:01.941Z,17.01
2018-05-06T23:36:58.326Z,16.91
2018-05-06T23:41:54.152Z,16.90
2018-05-06T23:46:50.188Z,16.74
2018-05-06T23:51:45.904Z,16.58
2018-05-06T23:56:42.138Z,16.49
